ROMMA est une association bénévole à but non lucratif. Votre soutien est indispensable : ADHERER à ROMMA ou FAIRE un DON

Granges-lès-Beaumont - (26, Drôme)

Drôme des Collines (155 m)   Longitude: 04°58'E   Latitude: 45°03'N Station partenaire n°123
 

Détail journalier du     <<     >>

Température Precipitation Humidité Pression Vent Dir Rafale Dir. rafale Ensol.
Heure (°C) (mm) (%) (hPa) (km/h) (km/h) (min)
01:00 9.1082103017N29N0
02:00 8.2082102916N27N0
03:00 7.4083102912NNO23N0
04:00 7.2084102911NO18ONO0
05:00 6.0085102912NNO21NNO0
06:00 5.4086102910NNO18NNO0
07:00 5.2087102911NNO18NNO0
08:00 5.4087102912NNO19NO0
09:00 6.608610299NNO18NNO20
10:00 8.907910299NNO19NNO10
11:00 10.6071103014N23N0
12:00 12.9064102915NNE26NNE50
13:00 14.7057102913N24NNE60
14:00 15.4054102813NNO24NNO60
15:00 15.9052102813NNO24NNO60
16:00 15.3052102814NNO26NNO60
17:00 14.1057102712NO24N60
18:00 12.4063102811NO23NO30
19:00 10.3069102810NO19NO0
20:00 8.907310299NNO16NO0
21:00 8.4075102910NNO15NO0
22:00 7.607710303OSO8OSO0
23:00 6.108010302O8O0
minuit 4.808310302---8NO0

Graphique du 23-02-2019

 

Serveur OMMA